Welcome to our new website - Welkom op onze vernieuwde website - Bienvenue sur notre nouveau site web - Willkommen auf unserer neuen Website
Check our progress frequently. Prüfen Sie unsere Fortschritte regelmäßig. Consultez notre progression fréquemment. Komt u straks nog eens terug

Bezoek ook deze websites:

Template documentation
and downloads

And another site



Het weer levert geen direct gevaar op.    Er zijn geen waarschuwingen afgegeven.

METAR rapporten vliegvelden

   
EHDL - Deelen Rnlafb, Netherlands
Afstand tot: ZW 55 km
Gewijzigd: 17-02-2020 15:55
Helder  
Helder  
   Wind: ZW 31.5 km/h
Wind: ZW 31.5 km/h
Temperatuur: 9°C
Voelt als: 5°C
Dauwpunt: 3°C
Vochtigheid: 66%
Barometer: 1010 hPa
Bewolking: Helder
Zicht: meer dan 10 km
Bewolking: Helder
EHDL 171455Z AUTO 23017KT 190V280 9999 NCD 09/03 Q1010 BLU
EHLE - Lelystad, Netherlands
Afstand tot: W 64 km
Gewijzigd: 17-02-2020 15:55
Grotendeels bewolkt  
Grotendeels bewolkt  
   Wind: ZW 40.7 km/h
Wind: ZW 40.7 km/h
Temperatuur: 9°C
Voelt als: 4°C
Dauwpunt: 4°C
Vochtigheid: 71%
Barometer: 1009 hPa
Bewolking: Grotendeels bewolkt
Zicht: meer dan 10 km
Bewolking: Licht bewolkt 2900 ft,
Gedeeltelijk bewolkt 3500 ft,
Grotendeels bewolkt 3900 ft
EHLE 171455Z AUTO 23022KT 200V260 9999 FEW029 SCT035 BKN039 09/04 Q1009 NOSIG
ETWM - Meppen, Germany
Afstand tot: ONO 69 km
Gewijzigd: 17-02-2020 15:20
Regenbuien, Gedeeltelijk bewolkt  
Regenbuien, Gedeeltelijk bewolkt  
   Wind: WZW 25.9 km/h
Wind: WZW 25.9 km/h
Temperatuur: 6°C
Voelt als: 2°C
Dauwpunt: 4°C
Vochtigheid: 87%
Barometer: 1009 hPa
Bewolking: Gedeeltelijk bewolkt
Zicht: meer dan 10 km
Bewolking: Gedeeltelijk bewolkt 1600 ft
ETWM 171420Z 24014KT 9999 VCSH SCT016CB 06/04 Q1009 RESHRA BLU+
EHGG - Groningen/Eelde, Netherlands
Afstand tot: N 79 km
Gewijzigd: 17-02-2020 15:55
Gedeeltelijk bewolkt  
Gedeeltelijk bewolkt  
   Wind: ZW 33.3 km/h
Wind: ZW 33.3 km/h
Temperatuur: 8°C
Voelt als: 4°C
Dauwpunt: 3°C
Vochtigheid: 71%
Barometer: 1007 hPa
Bewolking: Gedeeltelijk bewolkt
Zicht: meer dan 10 km
Bewolking: Gedeeltelijk bewolkt
EHGG 171455Z AUTO 23018KT 200V260 9999 NSC 08/03 Q1007 NOSIG
EDDG - Muenster/Osnabru, Germany
Afstand tot: OZO 90 km
Gewijzigd: 17-02-2020 15:50
Light Showers, Regen, Grotendeels bewolkt  
Light Showers, Regen, Grotendeels bewolkt  
   Wind: WZW 38.9 km/h<br />Gust to 38.9 km/h
Wind: WZW 38.9 km/h
Gust to 38.9 km/h
Temperatuur: 7°C
Voelt als: 2°C
Dauwpunt: 3°C
Vochtigheid: 76%
Barometer: 1011 hPa
Bewolking: Grotendeels bewolkt
Zicht: meer dan 10 km
Bewolking: Licht bewolkt 2000 ft,
Grotendeels bewolkt 2800 ft
EDDG 171450Z 24021G31KT 9999 -SHRA FEW020 BKN028CB 07/03 Q1011 RESHGS NOSIG
EDLV - Niederrhein, Germany
Afstand tot: ZZW 92 km
Gewijzigd: 17-02-2020 15:50
Gedeeltelijk bewolkt  
Gedeeltelijk bewolkt  
   Wind: ZW 20.4 km/h
Wind: ZW 20.4 km/h
Temperatuur: 8°C
Voelt als: 5°C
Dauwpunt: 4°C
Vochtigheid: 76%
Barometer: 1012 hPa
Bewolking: Gedeeltelijk bewolkt
Zicht: meer dan 10 km
Bewolking: Gedeeltelijk bewolkt 2800 ft
EDLV 171450Z 23011KT 9999 SCT028TCU 08/04 Q1012

Script ontwikkeld door  Saratoga-weather.org Aangepast voor de template door  Weerstation Leuven

U vindt ons ook hier:

Het Weer Aktueel

European Weather Network

Weather Underground

Benelux Weer Netwerk

Apparatuur in gebruik:

Weerstation
Davis VP2

Weerprogramma
Meteobridge

Weercomputer
Meteobridge Pro+

Webleverancier
vip.nl

Davis VP2

Meteobridge

Meteobridge Pro+

vip.nl